createdAt,value
2023-01-22T00:00:06.065Z,13.00
2023-01-22T00:02:36.066Z,12.85
2023-01-22T00:05:04.009Z,12.80
2023-01-22T00:07:30.723Z,12.43
2023-01-22T00:09:57.482Z,12.25
2023-01-22T00:12:24.079Z,13.07
2023-01-22T00:14:52.728Z,13.80
2023-01-22T00:17:19.573Z,13.43
2023-01-22T00:19:46.190Z,13.75
2023-01-22T00:22:12.866Z,14.77
2023-01-22T00:24:42.220Z,15.05
2023-01-22T00:27:09.286Z,14.20
2023-01-22T00:29:35.884Z,14.40
2023-01-22T00:32:02.781Z,12.60
2023-01-22T00:34:29.967Z,13.52
2023-01-22T00:36:56.555Z,13.50
2023-01-22T00:39:23.361Z,14.18
2023-01-22T00:41:50.099Z,13.52
2023-01-22T00:44:16.990Z,13.57
2023-01-22T00:46:43.660Z,14.23
2023-01-22T00:49:11.201Z,13.82
2023-01-22T00:51:39.332Z,12.73
2023-01-22T00:54:06.470Z,12.40
2023-01-22T00:56:33.154Z,15.13
2023-01-22T00:58:59.741Z,12.85
2023-01-22T01:01:26.502Z,13.40
2023-01-22T01:03:53.106Z,13.75
2023-01-22T01:06:21.554Z,14.38
2023-01-22T01:08:49.103Z,15.60
2023-01-22T01:11:18.883Z,14.43
2023-01-22T01:13:45.601Z,13.50
2023-01-22T01:16:27.933Z,13.63
2023-01-22T01:19:01.470Z,12.45
2023-01-22T01:21:28.704Z,11.60
2023-01-22T01:23:56.703Z,12.82
2023-01-22T01:26:24.136Z,13.10
2023-01-22T01:28:52.575Z,11.80
2023-01-22T01:31:20.536Z,14.15
2023-01-22T01:33:47.340Z,11.40
2023-01-22T01:36:35.425Z,15.90
2023-01-22T01:39:06.537Z,13.07
2023-01-22T01:41:33.156Z,11.82
2023-01-22T01:44:06.834Z,12.35
2023-01-22T01:46:38.270Z,12.07
2023-01-22T01:49:06.178Z,10.35
2023-01-22T01:51:36.026Z,11.93
2023-01-22T01:54:04.972Z,11.70
2023-01-22T01:56:37.663Z,11.82
2023-01-22T01:59:07.221Z,11.98
2023-01-22T02:01:34.007Z,10.40
2023-01-22T02:04:01.368Z,13.02
2023-01-22T02:06:28.324Z,12.10
2023-01-22T02:08:56.127Z,12.10
2023-01-22T02:11:23.687Z,11.10
2023-01-22T02:14:04.895Z,12.50
2023-01-22T02:16:31.923Z,11.30
2023-01-22T02:18:58.680Z,12.32
2023-01-22T02:21:38.076Z,10.82
2023-01-22T02:24:13.880Z,11.57
2023-01-22T02:26:42.025Z,11.10
2023-01-22T02:29:12.578Z,10.10
2023-01-22T02:31:41.055Z,10.45
2023-01-22T02:34:09.434Z,10.95
2023-01-22T02:36:37.761Z,10.68
2023-01-22T02:39:04.744Z,10.02
2023-01-22T02:41:32.010Z,9.90
2023-01-22T02:43:58.645Z,10.32
2023-01-22T02:46:25.956Z,9.32
2023-01-22T02:48:52.896Z,8.98
2023-01-22T02:51:19.558Z,10.75
2023-01-22T02:53:46.192Z,9.30
2023-01-22T02:56:12.859Z,8.95
2023-01-22T02:58:39.633Z,10.73
2023-01-22T03:01:21.335Z,9.10
2023-01-22T03:03:49.236Z,7.78
2023-01-22T03:06:21.818Z,9.07
2023-01-22T03:08:49.988Z,8.07
2023-01-22T03:11:16.728Z,7.70
2023-01-22T03:14:01.973Z,8.43
2023-01-22T03:16:47.305Z,7.70
2023-01-22T03:19:32.698Z,8.35
2023-01-22T03:21:59.307Z,7.63
2023-01-22T03:24:26.110Z,8.23
2023-01-22T03:26:52.922Z,8.50
2023-01-22T03:29:19.623Z,7.40
2023-01-22T03:31:49.346Z,7.50
2023-01-22T03:34:20.968Z,6.65
2023-01-22T03:36:48.188Z,7.03
2023-01-22T03:39:15.126Z,7.50
2023-01-22T03:41:41.783Z,6.50
2023-01-22T03:44:11.983Z,6.55
2023-01-22T03:46:42.291Z,6.53
2023-01-22T03:49:09.677Z,6.90
2023-01-22T03:51:36.975Z,6.00
2023-01-22T03:54:04.106Z,6.03
2023-01-22T03:56:31.666Z,6.20
2023-01-22T03:58:58.448Z,5.95
2023-01-22T04:01:27.925Z,6.57
2023-01-22T04:03:54.929Z,5.70
2023-01-22T04:06:23.019Z,6.50
2023-01-22T04:08:51.597Z,6.35
2023-01-22T04:11:18.644Z,6.10
2023-01-22T04:13:46.021Z,6.32
2023-01-22T04:16:13.940Z,4.70
2023-01-22T04:18:42.014Z,4.88
2023-01-22T04:21:10.903Z,5.85
2023-01-22T04:23:37.576Z,6.07
2023-01-22T04:26:04.281Z,5.30
2023-01-22T04:28:31.067Z,5.63
2023-01-22T04:30:57.902Z,5.60
2023-01-22T04:33:24.649Z,5.18
2023-01-22T04:35:52.775Z,5.80
2023-01-22T04:38:19.908Z,5.60
2023-01-22T04:40:46.587Z,4.90
2023-01-22T04:43:13.270Z,5.30
2023-01-22T04:45:39.983Z,5.22
2023-01-22T04:48:08.404Z,5.60
2023-01-22T04:50:35.395Z,6.10
2023-01-22T04:53:02.393Z,5.88
2023-01-22T04:55:29.929Z,6.30
2023-01-22T04:57:58.462Z,6.80
2023-01-22T05:00:28.351Z,5.78
2023-01-22T05:02:59.996Z,5.90
2023-01-22T05:05:28.070Z,6.15
2023-01-22T05:07:57.367Z,5.13
2023-01-22T05:10:24.600Z,6.22
2023-01-22T05:12:51.613Z,5.55
2023-01-22T05:15:24.469Z,6.28
2023-01-22T05:17:52.771Z,5.25
2023-01-22T05:20:20.218Z,5.57
2023-01-22T05:22:47.017Z,6.22
2023-01-22T05:25:13.642Z,5.25
2023-01-22T05:27:40.484Z,5.45
2023-01-22T05:30:07.740Z,5.03
2023-01-22T05:32:34.363Z,5.22
2023-01-22T05:35:00.964Z,4.95
2023-01-22T05:37:32.326Z,5.70
2023-01-22T05:39:58.985Z,4.93
2023-01-22T05:42:25.584Z,5.70
2023-01-22T05:44:52.411Z,5.18
2023-01-22T05:47:19.042Z,6.38
2023-01-22T05:49:45.790Z,5.47
2023-01-22T05:52:12.448Z,5.10
2023-01-22T05:54:39.745Z,5.85
2023-01-22T05:57:07.288Z,5.70
2023-01-22T05:59:34.530Z,5.53
2023-01-22T06:02:01.836Z,5.43
2023-01-22T06:04:28.773Z,5.57
2023-01-22T06:06:55.690Z,5.35
2023-01-22T06:09:22.746Z,5.10
2023-01-22T06:11:49.498Z,5.80
2023-01-22T06:14:16.310Z,6.20
2023-01-22T06:16:42.962Z,5.50
2023-01-22T06:19:09.748Z,6.25
2023-01-22T06:21:36.366Z,5.93
2023-01-22T06:24:03.077Z,5.43
2023-01-22T06:26:29.680Z,5.35
2023-01-22T06:28:56.335Z,5.93
2023-01-22T06:31:23.123Z,6.28
2023-01-22T06:33:49.853Z,6.10
2023-01-22T06:36:16.536Z,6.75
2023-01-22T06:38:43.149Z,5.88
2023-01-22T06:41:10.054Z,6.38
2023-01-22T06:43:37.688Z,6.65
2023-01-22T06:46:05.220Z,6.85
2023-01-22T06:48:31.891Z,6.05
2023-01-22T06:50:59.753Z,8.60
2023-01-22T06:53:26.874Z,6.47
2023-01-22T06:55:53.530Z,6.80
2023-01-22T06:58:20.115Z,6.60
2023-01-22T07:00:46.747Z,7.18
2023-01-22T07:03:13.563Z,7.43
2023-01-22T07:05:40.139Z,7.00
2023-01-22T07:08:06.753Z,6.32
2023-01-22T07:10:33.495Z,7.10
2023-01-22T07:13:00.161Z,6.80
2023-01-22T07:15:26.928Z,7.18
2023-01-22T07:17:55.004Z,8.07
2023-01-22T07:20:23.132Z,7.05
2023-01-22T07:22:50.692Z,9.70
2023-01-22T07:25:18.227Z,8.85
2023-01-22T07:27:44.959Z,7.10
2023-01-22T07:30:12.093Z,6.78
2023-01-22T07:32:38.787Z,7.50
2023-01-22T07:35:05.734Z,7.25
2023-01-22T07:37:33.375Z,6.75
2023-01-22T07:40:00.120Z,7.47
2023-01-22T07:42:26.726Z,7.05
2023-01-22T07:44:53.311Z,7.93
2023-01-22T07:47:19.955Z,7.93
2023-01-22T07:49:46.588Z,8.02
2023-01-22T07:52:13.462Z,7.40
2023-01-22T07:54:40.065Z,8.05
2023-01-22T07:57:06.695Z,7.75
2023-01-22T07:59:35.316Z,7.57
2023-01-22T08:02:03.567Z,7.60
2023-01-22T08:04:30.524Z,8.23
2023-01-22T08:06:57.203Z,9.65
2023-01-22T08:09:25.560Z,9.10
2023-01-22T08:11:53.135Z,6.68
2023-01-22T08:14:20.274Z,8.20
2023-01-22T08:16:47.418Z,9.38
2023-01-22T08:19:14.641Z,7.55
2023-01-22T08:21:41.540Z,8.00
2023-01-22T08:24:10.272Z,11.25
2023-01-22T08:26:37.325Z,7.55
2023-01-22T08:29:07.274Z,8.30
2023-01-22T08:31:34.368Z,11.52
2023-01-22T08:34:01.502Z,12.90
2023-01-22T08:36:30.784Z,9.80
2023-01-22T08:38:57.488Z,8.75
2023-01-22T08:41:24.527Z,8.48
2023-01-22T08:43:52.955Z,7.50
2023-01-22T08:46:20.113Z,7.30
2023-01-22T08:48:48.776Z,7.47
2023-01-22T08:51:15.669Z,7.60
2023-01-22T08:53:42.618Z,7.15
2023-01-22T08:56:09.495Z,7.07
2023-01-22T08:58:36.289Z,5.85
2023-01-22T09:01:03.348Z,6.93
2023-01-22T09:03:31.173Z,7.70
2023-01-22T09:05:59.133Z,6.68
2023-01-22T09:08:25.793Z,6.47
2023-01-22T09:10:52.442Z,7.00
2023-01-22T09:13:19.082Z,8.10
2023-01-22T09:15:45.671Z,7.10
2023-01-22T09:18:12.427Z,7.60
2023-01-22T09:20:39.110Z,7.50
2023-01-22T09:23:05.778Z,7.30
2023-01-22T09:25:32.396Z,6.72
2023-01-22T09:28:00.203Z,7.30
2023-01-22T09:30:30.275Z,5.63
2023-01-22T09:32:57.344Z,5.55
2023-01-22T09:35:24.305Z,4.65
2023-01-22T09:37:50.985Z,5.28
2023-01-22T09:40:27.844Z,4.82
2023-01-22T09:43:20.690Z,4.28
2023-01-22T09:45:49.493Z,4.05
2023-01-22T09:48:18.620Z,4.13
2023-01-22T09:50:46.999Z,4.55
2023-01-22T09:53:17.602Z,5.18
2023-01-22T09:55:48.234Z,5.88
2023-01-22T09:58:20.519Z,4.93
2023-01-22T10:01:02.435Z,4.90
2023-01-22T10:03:53.642Z,4.10
2023-01-22T10:06:22.894Z,5.88
2023-01-22T10:09:12.203Z,7.75
2023-01-22T10:11:38.999Z,5.18
2023-01-22T10:14:09.125Z,4.35
2023-01-22T10:16:37.197Z,4.60
2023-01-22T10:19:41.879Z,4.13
2023-01-22T10:22:18.972Z,4.00
2023-01-22T10:24:45.819Z,4.07
2023-01-22T10:27:20.945Z,4.80
2023-01-22T10:30:20.085Z,4.82
2023-01-22T10:33:01.390Z,3.63
2023-01-22T10:35:30.657Z,5.28
2023-01-22T10:37:59.870Z,3.95
2023-01-22T10:40:32.802Z,3.72
2023-01-22T10:43:01.728Z,3.85
2023-01-22T10:45:28.509Z,4.45
2023-01-22T10:48:15.867Z,6.50
2023-01-22T10:50:43.943Z,4.85
2023-01-22T10:53:31.728Z,4.25
2023-01-22T10:56:01.088Z,2.85
2023-01-22T10:58:32.966Z,4.43
2023-01-22T11:01:06.798Z,4.13
2023-01-22T11:03:41.701Z,3.63
2023-01-22T11:06:24.182Z,3.10
2023-01-22T11:08:57.982Z,3.33
2023-01-22T11:11:35.276Z,3.00
2023-01-22T11:14:14.929Z,3.28
2023-01-22T11:16:43.684Z,3.10
2023-01-22T11:19:21.664Z,2.95
2023-01-22T11:21:57.514Z,3.08
2023-01-22T11:24:33.060Z,3.17
2023-01-22T11:27:27.958Z,3.75
2023-01-22T11:30:09.987Z,3.70
2023-01-22T11:32:50.208Z,2.85
2023-01-22T11:35:32.119Z,3.25
2023-01-22T11:38:13.753Z,3.42
2023-01-22T11:41:02.592Z,4.05
2023-01-22T11:44:06.812Z,4.10
2023-01-22T11:47:02.932Z,4.75
2023-01-22T11:50:16.122Z,3.70
2023-01-22T11:52:47.947Z,4.10
2023-01-22T11:55:29.678Z,3.75
2023-01-22T11:58:22.869Z,3.42
2023-01-22T12:01:14.058Z,3.00
2023-01-22T12:03:43.516Z,2.40
2023-01-22T12:06:37.382Z,2.30
2023-01-22T12:09:03.934Z,2.47
2023-01-22T12:11:41.794Z,2.50
2023-01-22T12:14:21.989Z,3.40
2023-01-22T12:17:16.578Z,3.60
2023-01-22T12:20:01.741Z,2.88
2023-01-22T12:22:38.033Z,3.08
2023-01-22T12:25:33.140Z,3.42
2023-01-22T12:28:16.934Z,3.60
2023-01-22T12:30:58.513Z,3.00
2023-01-22T12:33:29.559Z,2.85
2023-01-22T12:36:00.110Z,7.18
2023-01-22T12:38:58.841Z,3.38
2023-01-22T12:41:40.346Z,3.20
2023-01-22T12:44:21.198Z,3.03
2023-01-22T12:47:16.725Z,3.42
2023-01-22T12:49:49.013Z,3.00
2023-01-22T12:52:39.459Z,3.60
2023-01-22T12:55:28.472Z,3.20
2023-01-22T12:57:55.062Z,3.80
2023-01-22T13:00:34.522Z,4.00
2023-01-22T13:03:30.841Z,3.65
2023-01-22T13:05:59.179Z,4.95
2023-01-22T13:08:42.007Z,4.38
2023-01-22T13:11:37.215Z,4.35
2023-01-22T13:14:24.121Z,4.45
2023-01-22T13:16:57.179Z,4.80
2023-01-22T13:19:26.924Z,4.93
2023-01-22T13:21:56.805Z,5.40
2023-01-22T13:24:23.657Z,5.45
2023-01-22T13:27:00.318Z,4.90
2023-01-22T13:29:33.979Z,4.05
2023-01-22T13:32:14.883Z,4.95
2023-01-22T13:34:41.742Z,4.75
2023-01-22T13:37:24.319Z,11.60
2023-01-22T13:39:50.937Z,6.25
2023-01-22T13:42:17.788Z,5.85
2023-01-22T13:44:48.929Z,5.03
2023-01-22T13:47:35.980Z,4.38
2023-01-22T13:50:03.513Z,5.85
2023-01-22T13:52:33.927Z,6.53
2023-01-22T13:55:15.847Z,5.70
2023-01-22T13:57:54.762Z,3.88
2023-01-22T14:00:30.745Z,4.13
2023-01-22T14:02:58.530Z,3.90
2023-01-22T14:05:30.339Z,4.05
2023-01-22T14:08:11.626Z,3.58
2023-01-22T14:10:41.188Z,3.85
2023-01-22T14:13:10.614Z,3.10
2023-01-22T14:15:38.309Z,4.80
2023-01-22T14:18:10.453Z,7.90
2023-01-22T14:20:41.741Z,5.40
2023-01-22T14:23:08.542Z,3.90
2023-01-22T14:25:49.546Z,3.75
2023-01-22T14:28:16.931Z,3.85
2023-01-22T14:30:43.938Z,4.50
2023-01-22T14:33:23.243Z,3.72
2023-01-22T14:35:51.865Z,3.65
2023-01-22T14:38:21.644Z,3.40
2023-01-22T14:40:48.278Z,3.47
2023-01-22T14:43:16.026Z,4.00
2023-01-22T14:45:45.209Z,3.38
2023-01-22T14:48:14.348Z,3.72
2023-01-22T14:50:41.814Z,3.80
2023-01-22T14:53:10.137Z,3.65
2023-01-22T14:55:37.377Z,3.67
2023-01-22T14:58:04.279Z,4.43
2023-01-22T15:00:30.989Z,3.78
2023-01-22T15:02:58.983Z,2.80
2023-01-22T15:05:26.880Z,4.28
2023-01-22T15:07:53.685Z,3.42
2023-01-22T15:10:20.666Z,3.53
2023-01-22T15:12:52.516Z,3.78
2023-01-22T15:15:25.183Z,3.70
2023-01-22T15:17:53.896Z,3.70
2023-01-22T15:20:21.581Z,3.90
2023-01-22T15:22:49.632Z,4.40
2023-01-22T15:25:17.139Z,4.20
2023-01-22T15:27:44.582Z,3.55
2023-01-22T15:30:16.776Z,4.45
2023-01-22T15:32:43.660Z,4.32
2023-01-22T15:35:10.598Z,4.75
2023-01-22T15:37:37.630Z,5.30
2023-01-22T15:40:09.940Z,4.95
2023-01-22T15:42:36.992Z,4.78
2023-01-22T15:45:05.061Z,5.10
2023-01-22T15:47:31.750Z,9.80
2023-01-22T15:49:58.631Z,6.80
2023-01-22T15:52:31.461Z,5.30
2023-01-22T15:54:58.151Z,5.00
2023-01-22T15:57:24.818Z,5.20
2023-01-22T15:59:51.609Z,5.10
2023-01-22T16:02:25.213Z,6.05
2023-01-22T16:04:54.863Z,5.85
2023-01-22T16:07:24.189Z,5.22
2023-01-22T16:09:51.063Z,6.15
2023-01-22T16:12:18.482Z,7.00
2023-01-22T16:14:45.098Z,6.13
2023-01-22T16:17:11.687Z,6.82
2023-01-22T16:19:38.357Z,6.95
2023-01-22T16:22:05.464Z,5.57
2023-01-22T16:24:32.310Z,6.30
2023-01-22T16:27:00.071Z,6.75
2023-01-22T16:29:26.739Z,6.38
2023-01-22T16:31:53.479Z,6.85
2023-01-22T16:34:21.484Z,7.40
2023-01-22T16:36:49.111Z,7.40
2023-01-22T16:39:22.948Z,9.00
2023-01-22T16:41:50.977Z,10.80
2023-01-22T16:44:20.137Z,8.18
2023-01-22T16:46:49.477Z,10.55
2023-01-22T16:49:25.050Z,8.75
2023-01-22T16:51:57.008Z,7.15
2023-01-22T16:54:31.788Z,9.70
2023-01-22T16:57:01.121Z,8.93
2023-01-22T16:59:28.273Z,7.50
2023-01-22T17:01:58.139Z,10.32
2023-01-22T17:04:24.794Z,7.88
2023-01-22T17:06:54.192Z,11.50
2023-01-22T17:09:28.604Z,9.93
2023-01-22T17:11:57.922Z,9.30
2023-01-22T17:14:26.976Z,7.47
2023-01-22T17:16:53.860Z,7.63
2023-01-22T17:19:20.786Z,7.75
2023-01-22T17:21:51.496Z,7.40
2023-01-22T17:24:18.594Z,6.65
2023-01-22T17:26:47.926Z,8.52
2023-01-22T17:29:15.175Z,9.93
2023-01-22T17:31:42.114Z,8.75
2023-01-22T17:34:10.973Z,7.80
2023-01-22T17:36:39.140Z,8.20
2023-01-22T17:39:06.362Z,9.25
2023-01-22T17:41:33.059Z,9.50
2023-01-22T17:44:00.107Z,9.73
2023-01-22T17:46:31.382Z,9.05
2023-01-22T17:48:59.238Z,8.80
2023-01-22T17:51:28.134Z,9.65
2023-01-22T17:53:56.299Z,12.35
2023-01-22T17:56:35.266Z,9.85
2023-01-22T17:59:05.233Z,8.90
2023-01-22T18:01:34.146Z,7.43
2023-01-22T18:04:03.664Z,8.25
2023-01-22T18:06:31.033Z,8.68
2023-01-22T18:08:58.260Z,8.25
2023-01-22T18:11:27.831Z,8.23
2023-01-22T18:14:03.599Z,8.38
2023-01-22T18:16:33.532Z,7.93
2023-01-22T18:19:03.358Z,8.70
2023-01-22T18:21:30.500Z,7.75
2023-01-22T18:23:58.911Z,9.18
2023-01-22T18:26:26.609Z,7.35
2023-01-22T18:28:56.204Z,9.55
2023-01-22T18:31:27.281Z,10.98
2023-01-22T18:33:56.359Z,9.52
2023-01-22T18:36:26.068Z,8.00
2023-01-22T18:38:53.448Z,9.15
2023-01-22T18:41:24.971Z,7.63
2023-01-22T18:43:56.934Z,7.88
2023-01-22T18:46:26.473Z,7.78
2023-01-22T18:48:55.771Z,9.02
2023-01-22T18:51:23.057Z,8.27
2023-01-22T18:53:49.801Z,8.43
2023-01-22T18:56:16.526Z,7.85
2023-01-22T18:58:44.660Z,8.10
2023-01-22T19:01:25.823Z,8.55
2023-01-22T19:03:54.995Z,7.82
2023-01-22T19:06:24.526Z,7.95
2023-01-22T19:08:57.398Z,9.15
2023-01-22T19:11:24.840Z,10.27
2023-01-22T19:13:56.245Z,7.20
2023-01-22T19:16:24.642Z,8.68
2023-01-22T19:19:00.683Z,8.90
2023-01-22T19:21:28.178Z,9.18
2023-01-22T19:23:57.381Z,7.00
2023-01-22T19:26:28.413Z,9.35
2023-01-22T19:28:58.811Z,7.43
2023-01-22T19:31:28.568Z,9.38
2023-01-22T19:33:56.026Z,9.18
2023-01-22T19:36:24.434Z,8.05
2023-01-22T19:38:51.368Z,8.50
2023-01-22T19:41:18.134Z,10.50
2023-01-22T19:43:45.106Z,8.38
2023-01-22T19:46:13.503Z,8.70
2023-01-22T19:48:40.570Z,7.68
2023-01-22T19:51:10.641Z,6.93
2023-01-22T19:53:38.244Z,8.55
2023-01-22T19:56:13.361Z,7.28
2023-01-22T19:58:39.979Z,7.30
2023-01-22T20:01:11.454Z,7.32
2023-01-22T20:03:38.179Z,7.35
2023-01-22T20:06:07.079Z,8.10
2023-01-22T20:08:36.326Z,8.30
2023-01-22T20:11:08.184Z,8.27
2023-01-22T20:13:35.981Z,8.32
2023-01-22T20:16:03.277Z,8.63
2023-01-22T20:18:30.732Z,8.15
2023-01-22T20:20:59.665Z,8.00
2023-01-22T20:23:27.943Z,7.55
2023-01-22T20:25:55.970Z,8.05
2023-01-22T20:28:22.824Z,7.32
2023-01-22T20:31:00.911Z,8.00
2023-01-22T20:33:28.235Z,7.80
2023-01-22T20:35:56.450Z,8.25
2023-01-22T20:38:23.148Z,8.07
2023-01-22T20:40:49.945Z,9.18
2023-01-22T20:43:17.726Z,8.63
2023-01-22T20:45:44.477Z,11.15
2023-01-22T20:48:11.109Z,8.85
2023-01-22T20:50:41.963Z,8.52
2023-01-22T20:53:08.749Z,6.45
2023-01-22T20:55:35.356Z,7.53
2023-01-22T20:58:02.116Z,7.75
2023-01-22T21:00:31.935Z,8.20
2023-01-22T21:02:58.577Z,8.23
2023-01-22T21:05:25.221Z,10.10
2023-01-22T21:07:52.928Z,8.45
2023-01-22T21:10:19.982Z,8.93
2023-01-22T21:12:47.006Z,9.32
2023-01-22T21:15:13.640Z,8.60
2023-01-22T21:17:40.218Z,8.90
2023-01-22T21:20:07.384Z,10.30
2023-01-22T21:22:33.982Z,9.75
2023-01-22T21:25:00.608Z,9.00
2023-01-22T21:27:28.449Z,9.70
2023-01-22T21:29:55.275Z,9.43
2023-01-22T21:32:21.932Z,9.23
2023-01-22T21:34:48.606Z,8.50
2023-01-22T21:37:15.241Z,9.23
2023-01-22T21:39:44.960Z,8.57
2023-01-22T21:42:31.306Z,9.25
2023-01-22T21:45:16.331Z,9.93
2023-01-22T21:47:42.926Z,8.75
2023-01-22T21:50:10.307Z,9.23
2023-01-22T21:52:37.974Z,9.07
2023-01-22T21:55:05.156Z,9.57
2023-01-22T21:57:31.805Z,9.52
2023-01-22T21:59:58.386Z,7.72
2023-01-22T22:02:25.204Z,8.70
2023-01-22T22:04:51.841Z,8.70
2023-01-22T22:07:18.507Z,8.45
2023-01-22T22:09:45.148Z,8.68
2023-01-22T22:12:11.964Z,9.52
2023-01-22T22:14:38.641Z,10.02
2023-01-22T22:17:05.205Z,9.43
2023-01-22T22:19:31.987Z,8.73
2023-01-22T22:21:58.649Z,7.70
2023-01-22T22:24:25.409Z,8.07
2023-01-22T22:26:52.050Z,8.63
2023-01-22T22:29:18.753Z,8.93
2023-01-22T22:31:45.360Z,9.60
2023-01-22T22:34:11.973Z,8.05
2023-01-22T22:36:38.789Z,9.10
2023-01-22T22:39:06.491Z,9.60
2023-01-22T22:41:36.180Z,9.23
2023-01-22T22:44:03.149Z,8.25
2023-01-22T22:46:32.796Z,8.40
2023-01-22T22:49:01.151Z,8.85
2023-01-22T22:51:32.877Z,10.27
2023-01-22T22:54:12.823Z,9.63
2023-01-22T22:56:39.422Z,9.45
2023-01-22T22:59:06.596Z,10.02
2023-01-22T23:01:34.029Z,9.70
2023-01-22T23:04:01.147Z,8.88
2023-01-22T23:06:30.326Z,8.90
2023-01-22T23:08:58.648Z,10.30
2023-01-22T23:11:32.183Z,8.98
2023-01-22T23:14:02.713Z,10.50
2023-01-22T23:16:32.211Z,11.25
2023-01-22T23:19:01.158Z,10.20
2023-01-22T23:21:29.368Z,10.82
2023-01-22T23:23:57.030Z,11.00
2023-01-22T23:26:29.715Z,10.82
2023-01-22T23:28:58.673Z,10.75
2023-01-22T23:31:27.040Z,10.95
2023-01-22T23:33:54.991Z,10.30
2023-01-22T23:36:22.455Z,10.52
2023-01-22T23:38:49.504Z,11.68
2023-01-22T23:41:18.098Z,10.45
2023-01-22T23:43:45.548Z,11.00
2023-01-22T23:46:16.397Z,10.93
2023-01-22T23:48:43.604Z,11.10
2023-01-22T23:51:13.111Z,10.77
2023-01-22T23:53:41.385Z,11.45
2023-01-22T23:56:08.526Z,10.35
2023-01-22T23:58:35.708Z,10.38
